sim
Sign-in with your pilot id or email,
or register
Callsign
Passwort

Schedule Details

Flight Number: OEO1718
Departure: Munster Osnabruck International -?Airport (EDDG) at 05:45
Arrival: Fuerteventura Airport (GCFV) at 10:35

Weather Information
Getting current METAR information for EDDG 160250Z VRB02KT CAVOK 02/M02 Q1026 NOSIG
Getting current METAR information for GCFV 160230Z AUTO 28005KT 9999 NCD 13/10 Q1018

Schedule Frequency

Route Map